sensor_id;sensor_type;location;lat;lon;timestamp;pressure;altitude;pressure_sealevel;temperature;humidity
75497;BME280;64074;47.540;19.072;2023-01-01T00:01:36;101633.06;;;5.41;84.64
75497;BME280;64074;47.540;19.072;2023-01-01T00:04:52;101633.53;;;5.38;84.27
75497;BME280;64074;47.540;19.072;2023-01-01T00:07:55;101638.31;;;5.36;83.75
75497;BME280;64074;47.540;19.072;2023-01-01T00:11:13;101632.16;;;5.17;84.18
75497;BME280;64074;47.540;19.072;2023-01-01T00:14:41;101640.91;;;5.12;84.36
75497;BME280;64074;47.540;19.072;2023-01-01T00:18:18;101641.84;;;5.18;84.55
75497;BME280;64074;47.540;19.072;2023-01-01T00:21:42;101645.59;;;5.17;84.48
75497;BME280;64074;47.540;19.072;2023-01-01T00:25:04;101644.13;;;5.21;84.94
75497;BME280;64074;47.540;19.072;2023-01-01T00:28:27;101636.72;;;5.16;84.74
75497;BME280;64074;47.540;19.072;2023-01-01T00:31:48;101636.59;;;5.11;84.62
75497;BME280;64074;47.540;19.072;2023-01-01T00:35:18;101635.41;;;5.07;84.86
75497;BME280;64074;47.540;19.072;2023-01-01T00:38:35;101636.81;;;5.10;84.73
75497;BME280;64074;47.540;19.072;2023-01-01T00:41:56;101639.28;;;5.11;84.82
75497;BME280;64074;47.540;19.072;2023-01-01T00:45:18;101640.53;;;5.09;85.21
75497;BME280;64074;47.540;19.072;2023-01-01T00:48:45;101629.09;;;5.13;85.47
75497;BME280;64074;47.540;19.072;2023-01-01T00:52:03;101632.09;;;5.23;85.25
75497;BME280;64074;47.540;19.072;2023-01-01T00:55:23;101637.75;;;5.15;84.94
75497;BME280;64074;47.540;19.072;2023-01-01T00:58:50;101636.72;;;5.16;85.20
75497;BME280;64074;47.540;19.072;2023-01-01T01:02:10;101643.72;;;5.17;85.00
75497;BME280;64074;47.540;19.072;2023-01-01T01:05:27;101638.44;;;5.11;85.37
75497;BME280;64074;47.540;19.072;2023-01-01T01:08:47;101630.88;;;5.19;84.96
75497;BME280;64074;47.540;19.072;2023-01-01T01:12:01;101637.47;;;5.23;84.82
75497;BME280;64074;47.540;19.072;2023-01-01T01:15:20;101650.03;;;5.11;85.46
75497;BME280;64074;47.540;19.072;2023-01-01T01:18:27;101651.78;;;5.17;nan
75497;BME280;64074;47.540;19.072;2023-01-01T01:21:36;101643.50;;;5.19;85.47
75497;BME280;64074;47.540;19.072;2023-01-01T01:24:58;101644.53;;;5.18;86.02
75497;BME280;64074;47.540;19.072;2023-01-01T01:28:26;101635.88;;;4.86;86.52
75497;BME280;64074;47.540;19.072;2023-01-01T01:31:44;101641.91;;;4.81;86.83
75497;BME280;64074;47.540;19.072;2023-01-01T01:34:53;101648.25;;;4.87;87.06
75497;BME280;64074;47.540;19.072;2023-01-01T01:38:27;101645.56;;;4.87;86.83
75497;BME280;64074;47.540;19.072;2023-01-01T01:41:37;101639.16;;;4.88;86.54
75497;BME280;64074;47.540;19.072;2023-01-01T01:45:05;101637.38;;;4.82;86.27
75497;BME280;64074;47.540;19.072;2023-01-01T01:48:10;101638.09;;;4.89;86.34
75497;BME280;64074;47.540;19.072;2023-01-01T01:51:26;101628.75;;;4.91;85.94
75497;BME280;64074;47.540;19.072;2023-01-01T01:54:42;101642.38;;;4.97;86.04
75497;BME280;64074;47.540;19.072;2023-01-01T01:57:50;101646.00;;;5.02;86.08
75497;BME280;64074;47.540;19.072;2023-01-01T02:00:54;101644.00;;;4.98;86.21
75497;BME280;64074;47.540;19.072;2023-01-01T02:04:02;101635.41;;;4.89;86.21
75497;BME280;64074;47.540;19.072;2023-01-01T02:07:13;101636.19;;;4.96;85.93
75497;BME280;64074;47.540;19.072;2023-01-01T02:10:35;101637.03;;;5.08;85.66
75497;BME280;64074;47.540;19.072;2023-01-01T02:13:55;101641.47;;;5.03;85.42
75497;BME280;64074;47.540;19.072;2023-01-01T02:17:21;101636.00;;;5.09;85.16
75497;BME280;64074;47.540;19.072;2023-01-01T02:20:37;101640.31;;;5.10;nan
75497;BME280;64074;47.540;19.072;2023-01-01T02:30:50;101660.78;;;5.11;85.43
75497;BME280;64074;47.540;19.072;2023-01-01T02:33:59;101661.38;;;4.95;85.81
75497;BME280;64074;47.540;19.072;2023-01-01T02:37:12;101665.75;;;4.96;85.46
75497;BME280;64074;47.540;19.072;2023-01-01T02:40:54;101666.47;;;5.03;85.80
75497;BME280;64074;47.540;19.072;2023-01-01T02:44:15;101662.66;;;4.92;85.89
75497;BME280;64074;47.540;19.072;2023-01-01T02:47:38;101662.72;;;5.04;85.63
75497;BME280;64074;47.540;19.072;2023-01-01T02:51:03;101662.50;;;5.06;86.14
75497;BME280;64074;47.540;19.072;2023-01-01T02:54:57;101668.59;;;5.13;85.70
75497;BME280;64074;47.540;19.072;2023-01-01T02:58:30;101652.34;;;5.08;86.04
75497;BME280;64074;47.540;19.072;2023-01-01T03:09:48;101646.59;;;5.22;85.81
75497;BME280;64074;47.540;19.072;2023-01-01T03:13:21;101650.31;;;5.21;85.56
75497;BME280;64074;47.540;19.072;2023-01-01T03:20:10;101651.50;;;5.25;85.17
75497;BME280;64074;47.540;19.072;2023-01-01T03:23:18;101651.13;;;5.22;85.54
75497;BME280;64074;47.540;19.072;2023-01-01T03:26:28;101659.56;;;5.25;85.60
75497;BME280;64074;47.540;19.072;2023-01-01T03:29:41;101654.25;;;5.19;85.50
75497;BME280;64074;47.540;19.072;2023-01-01T03:33:11;101636.59;;;5.11;86.37
75497;BME280;64074;47.540;19.072;2023-01-01T03:36:37;101640.53;;;5.09;85.79
75497;BME280;64074;47.540;19.072;2023-01-01T03:39:58;101639.94;;;5.25;86.19
75497;BME280;64074;47.540;19.072;2023-01-01T03:43:13;101632.56;;;5.20;85.62
75497;BME280;64074;47.540;19.072;2023-01-01T03:46:43;101632.09;;;5.23;86.00
75497;BME280;64074;47.540;19.072;2023-01-01T03:49:59;101638.81;;;5.14;85.83
75497;BME280;64074;47.540;19.072;2023-01-01T03:53:13;101649.81;;;4.94;86.34
75497;BME280;64074;47.540;19.072;2023-01-01T03:56:36;101634.38;;;4.90;86.91
75497;BME280;64074;47.540;19.072;2023-01-01T04:00:06;101636.19;;;4.96;86.49
75497;BME280;64074;47.540;19.072;2023-01-01T04:03:26;101641.69;;;5.01;86.62
75497;BME280;64074;47.540;19.072;2023-01-01T04:06:43;101632.81;;;5.01;86.58
75497;BME280;64074;47.540;19.072;2023-01-01T04:14:33;101641.13;;;5.11;86.00
75497;BME280;64074;47.540;19.072;2023-01-01T04:18:08;101632.72;;;5.07;86.55
75497;BME280;64074;47.540;19.072;2023-01-01T04:21:18;101638.75;;;5.21;86.15
75497;BME280;64074;47.540;19.072;2023-01-01T04:24:36;101636.25;;;5.19;86.05
75497;BME280;64074;47.540;19.072;2023-01-01T04:27:49;101647.00;;;5.19;85.97
75497;BME280;64074;47.540;19.072;2023-01-01T04:31:21;101641.84;;;5.18;85.68
75497;BME280;64074;47.540;19.072;2023-01-01T04:34:52;101644.38;;;5.01;86.54
75497;BME280;64074;47.540;19.072;2023-01-01T04:38:13;101640.22;;;5.17;86.59
75497;BME280;64074;47.540;19.072;2023-01-01T04:41:23;101635.81;;;5.22;85.80
75497;BME280;64074;47.540;19.072;2023-01-01T04:44:28;101638.78;;;5.03;86.42
75497;BME280;64074;47.540;19.072;2023-01-01T04:47:39;101641.13;;;5.11;86.34
75497;BME280;64074;47.540;19.072;2023-01-01T04:51:13;101643.72;;;5.17;86.56
75497;BME280;64074;47.540;19.072;2023-01-01T04:54:54;101649.34;;;5.16;86.47
75497;BME280;64074;47.540;19.072;2023-01-01T04:58:25;101653.47;;;5.00;86.34
75497;BME280;64074;47.540;19.072;2023-01-01T05:01:47;101653.75;;;5.10;86.07
75497;BME280;64074;47.540;19.072;2023-01-01T05:04:59;101651.16;;;4.85;86.48
75497;BME280;64074;47.540;19.072;2023-01-01T05:08:09;101649.00;;;4.94;86.49
75497;BME280;64074;47.540;19.072;2023-01-01T05:11:15;101652.56;;;5.06;86.35
75497;BME280;64074;47.540;19.072;2023-01-01T05:14:32;101647.66;;;5.03;86.87
75497;BME280;64074;47.540;19.072;2023-01-01T05:17:49;101648.63;;;4.90;86.35
75497;BME280;64074;47.540;19.072;2023-01-01T05:21:33;101645.47;;;4.93;86.84
75497;BME280;64074;47.540;19.072;2023-01-01T05:24:48;101649.22;;;4.92;87.24
75497;BME280;64074;47.540;19.072;2023-01-01T05:27:58;101652.72;;;5.11;86.82
75497;BME280;64074;47.540;19.072;2023-01-01T05:31:08;101646.75;;;5.09;86.87
75497;BME280;64074;47.540;19.072;2023-01-01T05:34:24;101656.53;;;4.85;87.10
75497;BME280;64074;47.540;19.072;2023-01-01T05:37:39;101652.94;;;4.91;87.17
75497;BME280;64074;47.540;19.072;2023-01-01T05:40:50;101659.81;;;4.87;87.28
75497;BME280;64074;47.540;19.072;2023-01-01T05:44:07;101660.56;;;4.94;87.55
75497;BME280;64074;47.540;19.072;2023-01-01T05:47:14;101660.13;;;4.98;86.96
75497;BME280;64074;47.540;19.072;2023-01-01T05:50:35;101668.38;;;5.14;86.71
75497;BME280;64074;47.540;19.072;2023-01-01T05:53:59;101675.81;;;5.01;86.94
75497;BME280;64074;47.540;19.072;2023-01-01T05:57:59;101689.28;;;5.12;86.87
75497;BME280;64074;47.540;19.072;2023-01-01T06:00:44;101674.66;;;5.08;86.39
75497;BME280;64074;47.540;19.072;2023-01-01T06:04:04;101678.69;;;5.17;86.43
75497;BME280;64074;47.540;19.072;2023-01-01T06:07:14;101681.59;;;5.16;86.46
75497;BME280;64074;47.540;19.072;2023-01-01T06:10:32;101692.13;;;5.17;86.49
75497;BME280;64074;47.540;19.072;2023-01-01T06:13:51;101702.28;;;5.15;86.37
75497;BME280;64074;47.540;19.072;2023-01-01T06:17:01;101717.91;;;5.07;87.11
75497;BME280;64074;47.540;19.072;2023-01-01T06:20:35;101728.75;;;5.00;87.25
75497;BME280;64074;47.540;19.072;2023-01-01T06:23:45;101730.75;;;5.05;87.67
75497;BME280;64074;47.540;19.072;2023-01-01T06:26:55;101725.38;;;5.05;86.98
75497;BME280;64074;47.540;19.072;2023-01-01T06:30:17;101731.78;;;5.04;87.64
75497;BME280;64074;47.540;19.072;2023-01-01T06:33:55;101736.94;;;5.05;87.60
75497;BME280;64074;47.540;19.072;2023-01-01T06:37:15;101734.53;;;5.15;87.02
75497;BME280;64074;47.540;19.072;2023-01-01T06:40:39;101732.63;;;5.22;87.31
75497;BME280;64074;47.540;19.072;2023-01-01T06:43:48;101732.06;;;5.32;86.84
75497;BME280;64074;47.540;19.072;2023-01-01T06:47:01;101743.50;;;5.28;86.94
75497;BME280;64074;47.540;19.072;2023-01-01T06:50:41;101738.94;;;5.28;87.06
75497;BME280;64074;47.540;19.072;2023-01-01T06:53:58;101741.69;;;5.40;86.53
75497;BME280;64074;47.540;19.072;2023-01-01T06:57:39;101750.31;;;5.30;87.24
75497;BME280;64074;47.540;19.072;2023-01-01T07:01:01;101739.63;;;5.23;87.10
75497;BME280;64074;47.540;19.072;2023-01-01T07:04:22;101725.56;;;5.40;87.24
75497;BME280;64074;47.540;19.072;2023-01-01T07:11:00;101727.41;;;5.57;86.11
75497;BME280;64074;47.540;19.072;2023-01-01T07:14:21;101731.03;;;5.63;85.98
75497;BME280;64074;47.540;19.072;2023-01-01T07:17:34;101729.41;;;5.62;86.35
75497;BME280;64074;47.540;19.072;2023-01-01T07:20:56;101735.50;;;5.69;85.50
75497;BME280;64074;47.540;19.072;2023-01-01T07:24:37;101736.94;;;5.72;85.37
75497;BME280;64074;47.540;19.072;2023-01-01T07:27:56;101732.81;;;5.69;85.01
75497;BME280;64074;47.540;19.072;2023-01-01T07:31:07;101731.09;;;5.75;85.36
75497;BME280;64074;47.540;19.072;2023-01-01T07:34:18;101743.28;;;5.89;84.64
75497;BME280;64074;47.540;19.072;2023-01-01T07:37:49;101740.59;;;5.89;84.49
75497;BME280;64074;47.540;19.072;2023-01-01T07:41:06;101743.69;;;5.93;84.87
75497;BME280;64074;47.540;19.072;2023-01-01T07:44:27;101741.97;;;5.98;84.21
75497;BME280;64074;47.540;19.072;2023-01-01T07:47:52;101738.22;;;5.99;83.96
75497;BME280;64074;47.540;19.072;2023-01-01T07:51:36;101753.09;;;6.02;84.18
75497;BME280;64074;47.540;19.072;2023-01-01T07:54:53;101757.97;;;5.93;84.98
75497;BME280;64074;47.540;19.072;2023-01-01T07:58:01;101769.34;;;5.95;84.64
75497;BME280;64074;47.540;19.072;2023-01-01T08:01:11;101782.91;;;5.70;84.76
75497;BME280;64074;47.540;19.072;2023-01-01T08:04:38;101779.16;;;5.71;84.93
75497;BME280;64074;47.540;19.072;2023-01-01T08:08:04;101784.00;;;5.81;84.85
75497;BME280;64074;47.540;19.072;2023-01-01T08:11:17;101781.84;;;5.71;84.86
75497;BME280;64074;47.540;19.072;2023-01-01T08:14:25;101790.31;;;5.56;84.71
75497;BME280;64074;47.540;19.072;2023-01-01T08:17:36;101802.94;;;5.74;84.75
75497;BME280;64074;47.540;19.072;2023-01-01T08:20:57;101808.78;;;5.71;84.47
75497;BME280;64074;47.540;19.072;2023-01-01T08:24:11;101821.00;;;5.67;84.51
75497;BME280;64074;47.540;19.072;2023-01-01T08:27:15;101811.47;;;5.53;84.64
75497;BME280;64074;47.540;19.072;2023-01-01T08:30:42;101811.34;;;5.48;85.38
75497;BME280;64074;47.540;19.072;2023-01-01T08:33:53;101813.25;;;5.77;84.54
75497;BME280;64074;47.540;19.072;2023-01-01T08:37:21;101803.56;;;5.88;84.00
75497;BME280;64074;47.540;19.072;2023-01-01T08:40:28;101806.47;;;6.05;83.18
75497;BME280;64074;47.540;19.072;2023-01-01T08:43:45;101817.31;;;6.28;83.50
75497;BME280;64074;47.540;19.072;2023-01-01T08:46:54;101817.84;;;6.18;83.25
75497;BME280;64074;47.540;19.072;2023-01-01T08:50:04;101811.34;;;6.38;83.00
75497;BME280;64074;47.540;19.072;2023-01-01T08:53:13;101809.75;;;6.48;82.92
75497;BME280;64074;47.540;19.072;2023-01-01T08:56:17;101812.09;;;6.45;82.39
75497;BME280;64074;47.540;19.072;2023-01-01T08:59:27;101808.47;;;6.63;82.66
75497;BME280;64074;47.540;19.072;2023-01-01T09:02:56;101810.81;;;6.47;82.87
75497;BME280;64074;47.540;19.072;2023-01-01T09:06:42;101796.72;;;6.34;83.20
75497;BME280;64074;47.540;19.072;2023-01-01T09:09:53;101797.69;;;6.51;82.37
75497;BME280;64074;47.540;19.072;2023-01-01T09:13:09;101818.38;;;6.39;82.53
75497;BME280;64074;47.540;19.072;2023-01-01T09:16:40;101821.50;;;5.94;83.95
75497;BME280;64074;47.540;19.072;2023-01-01T09:19:54;101817.59;;;6.08;84.06
75497;BME280;64074;47.540;19.072;2023-01-01T09:23:32;101814.31;;;6.06;84.29
75497;BME280;64074;47.540;19.072;2023-01-01T09:26:44;101823.78;;;5.79;85.64
75497;BME280;64074;47.540;19.072;2023-01-01T09:29:55;101815.47;;;5.99;84.88
75497;BME280;64074;47.540;19.072;2023-01-01T09:33:09;101820.66;;;6.12;84.52
75497;BME280;64074;47.540;19.072;2023-01-01T09:39:31;101817.47;;;6.45;83.65
75497;BME280;64074;47.540;19.072;2023-01-01T09:42:58;101818.88;;;6.47;83.25
75497;BME280;64074;47.540;19.072;2023-01-01T09:46:13;101803.97;;;6.22;83.23
75497;BME280;64074;47.540;19.072;2023-01-01T09:49:37;101805.16;;;6.37;83.69
75497;BME280;64074;47.540;19.072;2023-01-01T09:53:13;101799.09;;;6.54;83.17
75497;BME280;64074;47.540;19.072;2023-01-01T09:56:25;101814.78;;;6.45;83.35
75497;BME280;64074;47.540;19.072;2023-01-01T09:59:36;101808.69;;;6.50;83.18
75497;BME280;64074;47.540;19.072;2023-01-01T10:03:06;101811.75;;;6.53;83.30
75497;BME280;64074;47.540;19.072;2023-01-01T10:06:23;101817.97;;;6.54;83.43
75497;BME280;64074;47.540;19.072;2023-01-01T10:10:34;101826.03;;;6.54;83.61
75497;BME280;64074;47.540;19.072;2023-01-01T10:13:24;101826.28;;;6.52;83.88
75497;BME280;64074;47.540;19.072;2023-01-01T10:16:44;101822.28;;;6.55;84.07
75497;BME280;64074;47.540;19.072;2023-01-01T10:19:59;101815.25;;;6.12;84.75
75497;BME280;64074;47.540;19.072;2023-01-01T10:23:21;101800.63;;;6.50;83.97
75497;BME280;64074;47.540;19.072;2023-01-01T10:26:42;101810.97;;;6.76;83.01
75497;BME280;64074;47.540;19.072;2023-01-01T10:30:01;101801.81;;;7.00;82.46
75497;BME280;64074;47.540;19.072;2023-01-01T10:33:18;101795.56;;;7.23;81.85
75497;BME280;64074;47.540;19.072;2023-01-01T10:36:41;101789.56;;;7.33;81.04
75497;BME280;64074;47.540;19.072;2023-01-01T10:40:09;101794.59;;;7.41;81.11
75497;BME280;64074;47.540;19.072;2023-01-01T10:43:26;101799.97;;;7.41;81.18
75497;BME280;64074;47.540;19.072;2023-01-01T10:46:48;101791.00;;;7.24;81.81
75497;BME280;64074;47.540;19.072;2023-01-01T10:50:07;101783.94;;;7.34;81.98
75497;BME280;64074;47.540;19.072;2023-01-01T10:53:29;101788.69;;;7.56;81.67
75497;BME280;64074;47.540;19.072;2023-01-01T10:56:51;101783.88;;;6.83;82.76
75497;BME280;64074;47.540;19.072;2023-01-01T11:00:24;101769.81;;;6.81;83.07
75497;BME280;64074;47.540;19.072;2023-01-01T11:03:35;101768.72;;;7.28;81.70
75497;BME280;64074;47.540;19.072;2023-01-01T11:07:05;101750.56;;;7.52;81.93
75497;BME280;64074;47.540;19.072;2023-01-01T11:10:21;101743.84;;;7.15;82.50
75497;BME280;64074;47.540;19.072;2023-01-01T11:13:32;101723.63;;;7.69;82.43
75497;BME280;64074;47.540;19.072;2023-01-01T11:17:03;101720.50;;;8.06;80.70
75497;BME280;64074;47.540;19.072;2023-01-01T11:20:30;101713.38;;;8.33;78.44
75497;BME280;64074;47.540;19.072;2023-01-01T11:23:50;101708.34;;;7.91;80.35
75497;BME280;64074;47.540;19.072;2023-01-01T11:27:23;101729.16;;;8.08;80.41
75497;BME280;64074;47.540;19.072;2023-01-01T11:30:35;101738.59;;;8.05;80.37
75497;BME280;64074;47.540;19.072;2023-01-01T11:33:56;101736.78;;;7.65;81.24
75497;BME280;64074;47.540;19.072;2023-01-01T11:40:46;101730.28;;;7.78;81.91
75497;BME280;64074;47.540;19.072;2023-01-01T11:44:02;101721.94;;;7.80;82.04
75497;BME280;64074;47.540;19.072;2023-01-01T11:47:35;101719.41;;;7.90;82.29
75497;BME280;64074;47.540;19.072;2023-01-01T11:50:53;101710.47;;;7.72;82.25
75497;BME280;64074;47.540;19.072;2023-01-01T11:54:32;101720.72;;;7.59;82.72
75497;BME280;64074;47.540;19.072;2023-01-01T12:04:53;101690.19;;;7.70;82.82
75497;BME280;64074;47.540;19.072;2023-01-01T12:08:13;101691.78;;;7.54;83.30
75497;BME280;64074;47.540;19.072;2023-01-01T12:15:54;101686.09;;;7.84;82.43
75497;BME280;64074;47.540;19.072;2023-01-01T12:19:52;101702.81;;;7.98;81.91
75497;BME280;64074;47.540;19.072;2023-01-01T12:23:15;101687.00;;;7.90;81.75
75497;BME280;64074;47.540;19.072;2023-01-01T12:27:04;101692.34;;;8.01;82.04
75497;BME280;64074;47.540;19.072;2023-01-01T12:30:24;101678.75;;;7.96;81.70
75497;BME280;64074;47.540;19.072;2023-01-01T12:34:14;101668.75;;;8.14;81.33
75497;BME280;64074;47.540;19.072;2023-01-01T12:38:29;101669.75;;;8.08;81.17
75497;BME280;64074;47.540;19.072;2023-01-01T12:41:46;101673.00;;;7.93;81.36
75497;BME280;64074;47.540;19.072;2023-01-01T12:45:13;101673.59;;;7.95;82.32
75497;BME280;64074;47.540;19.072;2023-01-01T12:59:15;101693.47;;;7.72;82.97
75497;BME280;64074;47.540;19.072;2023-01-01T13:02:33;101692.28;;;7.68;83.33
75497;BME280;64074;47.540;19.072;2023-01-01T13:05:50;101696.97;;;7.72;83.38
75497;BME280;64074;47.540;19.072;2023-01-01T13:09:06;101695.53;;;7.98;82.81
75497;BME280;64074;47.540;19.072;2023-01-01T13:12:15;101689.41;;;8.20;82.32
75497;BME280;64074;47.540;19.072;2023-01-01T13:18:51;101698.63;;;7.90;83.59
75497;BME280;64074;47.540;19.072;2023-01-01T13:25:34;101702.13;;;7.91;83.84
75497;BME280;64074;47.540;19.072;2023-01-01T13:32:14;101706.09;;;8.00;83.27
75497;BME280;64074;47.540;19.072;2023-01-01T13:35:26;101706.31;;;7.82;83.99
75497;BME280;64074;47.540;19.072;2023-01-01T13:38:52;101706.38;;;7.87;83.96
75497;BME280;64074;47.540;19.072;2023-01-01T13:45:45;101712.56;;;7.99;83.70
75497;BME280;64074;47.540;19.072;2023-01-01T13:53:26;101715.34;;;8.04;84.02
75497;BME280;64074;47.540;19.072;2023-01-01T14:04:11;101735.69;;;7.78;84.62
75497;BME280;64074;47.540;19.072;2023-01-01T14:07:48;101733.75;;;7.62;86.00
75497;BME280;64074;47.540;19.072;2023-01-01T14:10:58;101732.06;;;7.72;85.71
75497;BME280;64074;47.540;19.072;2023-01-01T14:14:26;101735.53;;;7.56;86.00
75497;BME280;64074;47.540;19.072;2023-01-01T14:17:39;101731.66;;;7.81;85.48
75497;BME280;64074;47.540;19.072;2023-01-01T14:21:12;101735.03;;;7.88;85.43
75497;BME280;64074;47.540;19.072;2023-01-01T14:24:27;101732.16;;;7.78;85.88
75497;BME280;64074;47.540;19.072;2023-01-01T14:27:42;101726.19;;;7.92;85.38
75497;BME280;64074;47.540;19.072;2023-01-01T14:31:14;101724.31;;;7.93;85.58
75497;BME280;64074;47.540;19.072;2023-01-01T14:34:31;101731.28;;;7.89;85.62
75497;BME280;64074;47.540;19.072;2023-01-01T14:37:52;101737.97;;;7.86;85.33
75497;BME280;64074;47.540;19.072;2023-01-01T14:44:45;101741.91;;;7.79;86.19
75497;BME280;64074;47.540;19.072;2023-01-01T14:48:02;101744.75;;;7.89;86.21
75497;BME280;64074;47.540;19.072;2023-01-01T14:51:28;101746.16;;;7.91;86.21
75497;BME280;64074;47.540;19.072;2023-01-01T14:54:53;101740.97;;;8.01;85.80
75497;BME280;64074;47.540;19.072;2023-01-01T14:58:18;101741.44;;;7.98;86.11
75497;BME280;64074;47.540;19.072;2023-01-01T15:01:30;101733.47;;;7.92;86.10
75497;BME280;64074;47.540;19.072;2023-01-01T15:04:52;101735.72;;;7.95;86.32
75497;BME280;64074;47.540;19.072;2023-01-01T15:08:04;101735.56;;;8.01;86.09
75497;BME280;64074;47.540;19.072;2023-01-01T15:11:33;101732.63;;;8.03;85.76
75497;BME280;64074;47.540;19.072;2023-01-01T15:14:56;101745.06;;;8.04;85.69
75497;BME280;64074;47.540;19.072;2023-01-01T15:18:44;101730.25;;;8.07;85.82
75497;BME280;64074;47.540;19.072;2023-01-01T15:21:53;101746.19;;;8.08;85.53
75497;BME280;64074;47.540;19.072;2023-01-01T15:25:04;101739.06;;;8.02;86.04
75497;BME280;64074;47.540;19.072;2023-01-01T15:28:26;101750.22;;;8.22;85.14
75497;BME280;64074;47.540;19.072;2023-01-01T15:31:56;101766.34;;;8.17;84.96
75497;BME280;64074;47.540;19.072;2023-01-01T15:35:26;101766.00;;;8.14;85.15
75497;BME280;64074;47.540;19.072;2023-01-01T15:38:44;101760.72;;;8.19;85.54
75497;BME280;64074;47.540;19.072;2023-01-01T15:41:57;101764.13;;;8.14;85.51
75497;BME280;64074;47.540;19.072;2023-01-01T15:45:22;101767.06;;;8.13;85.40
75497;BME280;64074;47.540;19.072;2023-01-01T15:48:50;101762.59;;;8.18;85.28
75497;BME280;64074;47.540;19.072;2023-01-01T15:52:02;101776.72;;;8.09;85.80
75497;BME280;64074;47.540;19.072;2023-01-01T15:55:13;101770.59;;;8.13;85.22
75497;BME280;64074;47.540;19.072;2023-01-01T16:01:40;101769.53;;;8.14;85.83
75497;BME280;64074;47.540;19.072;2023-01-01T16:04:50;101789.13;;;8.21;85.72
75497;BME280;64074;47.540;19.072;2023-01-01T16:08:03;101784.38;;;8.28;85.12
75497;BME280;64074;47.540;19.072;2023-01-01T16:11:07;101778.00;;;8.35;85.20
75497;BME280;64074;47.540;19.072;2023-01-01T16:14:22;101779.16;;;8.39;84.94
75497;BME280;64074;47.540;19.072;2023-01-01T16:17:29;101775.88;;;8.37;84.60
75497;BME280;64074;47.540;19.072;2023-01-01T16:20:40;101779.47;;;8.42;84.81
75497;BME280;64074;47.540;19.072;2023-01-01T16:23:54;101777.84;;;8.41;84.42
75497;BME280;64074;47.540;19.072;2023-01-01T16:26:58;101776.94;;;8.36;84.44
75497;BME280;64074;47.540;19.072;2023-01-01T16:30:11;101778.59;;;8.37;84.72
75497;BME280;64074;47.540;19.072;2023-01-01T16:33:18;101784.56;;;8.39;84.84
75497;BME280;64074;47.540;19.072;2023-01-01T16:36:26;101786.06;;;8.46;84.82
75497;BME280;64074;47.540;19.072;2023-01-01T16:39:34;101792.28;;;8.47;84.50
75497;BME280;64074;47.540;19.072;2023-01-01T16:42:41;101791.72;;;8.45;84.45
75497;BME280;64074;47.540;19.072;2023-01-01T16:45:54;101799.47;;;8.41;85.09
75497;BME280;64074;47.540;19.072;2023-01-01T16:49:21;101801.94;;;8.43;85.10
75497;BME280;64074;47.540;19.072;2023-01-01T16:52:25;101811.44;;;8.45;84.72
75497;BME280;64074;47.540;19.072;2023-01-01T16:55:37;101802.94;;;8.53;85.33
75497;BME280;64074;47.540;19.072;2023-01-01T16:58:49;101801.63;;;8.56;84.33
75497;BME280;64074;47.540;19.072;2023-01-01T17:02:11;101804.16;;;8.62;84.87
75497;BME280;64074;47.540;19.072;2023-01-01T17:05:21;101794.91;;;8.75;84.03
75497;BME280;64074;47.540;19.072;2023-01-01T17:08:53;101808.66;;;8.74;83.91
75497;BME280;64074;47.540;19.072;2023-01-01T17:12:10;101800.69;;;8.67;84.73
75497;BME280;64074;47.540;19.072;2023-01-01T17:15:32;101807.16;;;8.66;84.70
75497;BME280;64074;47.540;19.072;2023-01-01T17:18:51;101802.38;;;8.68;84.30
75497;BME280;64074;47.540;19.072;2023-01-01T17:22:28;101800.81;;;8.72;84.58
75497;BME280;64074;47.540;19.072;2023-01-01T17:25:45;101811.13;;;8.75;84.23
75497;BME280;64074;47.540;19.072;2023-01-01T17:28:55;101804.41;;;8.78;84.31
75497;BME280;64074;47.540;19.072;2023-01-01T17:32:22;101799.88;;;8.83;83.77
75497;BME280;64074;47.540;19.072;2023-01-01T17:36:01;101808.50;;;8.80;84.44
75497;BME280;64074;47.540;19.072;2023-01-01T17:39:58;101809.56;;;8.79;84.53
75497;BME280;64074;47.540;19.072;2023-01-01T17:43:14;101802.34;;;8.85;84.13
75497;BME280;64074;47.540;19.072;2023-01-01T17:46:27;101806.84;;;8.79;83.87
75497;BME280;64074;47.540;19.072;2023-01-01T17:49:38;101804.78;;;8.86;83.93
75497;BME280;64074;47.540;19.072;2023-01-01T17:52:43;101802.91;;;8.87;84.09
75497;BME280;64074;47.540;19.072;2023-01-01T17:55:59;101804.03;;;8.91;83.81
75497;BME280;64074;47.540;19.072;2023-01-01T17:59:40;101815.03;;;8.84;84.47
75497;BME280;64074;47.540;19.072;2023-01-01T18:02:51;101807.50;;;8.86;84.31
75497;BME280;64074;47.540;19.072;2023-01-01T18:06:02;101815.59;;;8.86;83.59
75497;BME280;64074;47.540;19.072;2023-01-01T18:10:02;101808.38;;;8.92;83.63
75497;BME280;64074;47.540;19.072;2023-01-01T18:13:11;101814.28;;;8.89;84.33
75497;BME280;64074;47.540;19.072;2023-01-01T18:16:24;101816.66;;;8.85;84.21
75497;BME280;64074;47.540;19.072;2023-01-01T18:20:23;101818.97;;;8.93;83.50
75497;BME280;64074;47.540;19.072;2023-01-01T18:23:54;101818.38;;;8.91;83.33
75497;BME280;64074;47.540;19.072;2023-01-01T18:27:36;101820.94;;;8.98;83.52
75497;BME280;64074;47.540;19.072;2023-01-01T18:34:54;101828.63;;;8.89;83.88
75497;BME280;64074;47.540;19.072;2023-01-01T18:38:12;101813.63;;;8.99;83.57
75497;BME280;64074;47.540;19.072;2023-01-01T18:45:34;101828.38;;;8.91;84.38
75497;BME280;64074;47.540;19.072;2023-01-01T18:48:45;101813.06;;;8.97;84.00
75497;BME280;64074;47.540;19.072;2023-01-01T18:55:17;101830.19;;;8.85;83.73
75497;BME280;64074;47.540;19.072;2023-01-01T18:58:27;101839.44;;;8.89;83.83
75497;BME280;64074;47.540;19.072;2023-01-01T19:01:45;101827.97;;;8.99;84.25
75497;BME280;64074;47.540;19.072;2023-01-01T19:05:12;101821.69;;;8.93;84.22